Time;durP1;ratioP1;P1;durP2;ratioP2;P2;SDS_P1;SDS_P2;PMS_P1;PMS_P2;Temp;Humidity;BMP_temperature;BMP_pressure;BME280_temperature;BME280_humidity;BME280_pressure;Samples;Min_cycle;Max_cycle;Signal;HPM_P1;HPM_P2
2021/03/13 00:00:17;;;;;;;97.40;62.95;;;8.40;99.90;;;;;;5036948;28;20076;-73
2021/03/13 00:02:44;;;;;;;80.10;54.90;;;8.40;99.90;;;;;;5037597;28;20137;-66
2021/03/13 00:05:17;;;;;;;84.97;57.60;;;8.40;99.90;;;;;;5038605;28;20073;-66
2021/03/13 00:07:43;;;;;;;85.38;56.95;;;8.30;99.90;;;;;;5038100;28;20026;-66
2021/03/13 00:10:09;;;;;;;86.10;59.78;;;8.40;99.90;;;;;;5040064;28;20095;-66
2021/03/13 00:12:35;;;;;;;80.18;56.50;;;8.40;99.90;;;;;;5042314;28;20009;-74
2021/03/13 00:15:02;;;;;;;127.93;90.90;;;8.30;99.90;;;;;;5038523;28;20044;-71
2021/03/13 00:17:28;;;;;;;85.25;59.00;;;8.30;99.90;;;;;;5040670;28;20032;-70
2021/03/13 00:19:53;;;;;;;89.53;62.58;;;8.40;99.90;;;;;;5040784;28;20022;-65
2021/03/13 00:22:19;;;;;;;78.07;56.15;;;8.40;99.90;;;;;;5034866;28;20553;-66
2021/03/13 00:24:45;;;;;;;68.88;50.13;;;8.40;99.90;;;;;;5033464;28;20018;-67
2021/03/13 00:27:11;;;;;;;79.55;57.92;;;8.40;99.90;;;;;;5033381;28;20021;-66
2021/03/13 00:29:37;;;;;;;69.80;51.13;;;8.40;99.90;;;;;;5033388;28;20519;-66
2021/03/13 00:32:03;;;;;;;87.95;63.35;;;8.40;99.90;;;;;;5034533;28;20022;-66
2021/03/13 00:34:28;;;;;;;91.97;68.78;;;8.40;99.90;;;;;;5038028;28;20029;-66
2021/03/13 00:36:56;;;;;;;80.35;59.25;;;8.40;99.90;;;;;;5037661;28;20475;-67
2021/03/13 00:39:22;;;;;;;76.68;54.33;;;8.40;99.90;;;;;;5040632;28;20036;-67
2021/03/13 00:41:48;;;;;;;74.55;53.42;;;8.40;99.90;;;;;;5039026;28;20092;-74
2021/03/13 00:44:14;;;;;;;82.47;59.78;;;8.40;99.90;;;;;;5038351;28;20475;-68
2021/03/13 00:46:43;;;;;;;84.65;60.55;;;8.40;99.90;;;;;;5039233;28;20037;-73
2021/03/13 00:49:08;;;;;;;86.05;62.88;;;8.40;99.90;;;;;;5039097;28;20108;-68
2021/03/13 00:51:34;;;;;;;84.85;63.30;;;8.40;99.90;;;;;;5040665;28;20123;-67
2021/03/13 00:54:00;;;;;;;80.95;60.53;;;8.40;99.90;;;;;;5041158;28;20033;-66
2021/03/13 00:56:26;;;;;;;83.57;62.90;;;8.30;99.90;;;;;;5038190;28;20025;-72
2021/03/13 00:58:52;;;;;;;87.63;65.53;;;8.30;99.90;;;;;;5038626;28;20053;-67
2021/03/13 01:01:18;;;;;;;95.28;68.63;;;8.20;99.90;;;;;;5038399;28;20021;-67
2021/03/13 01:03:43;;;;;;;88.05;66.95;;;8.20;99.90;;;;;;5039189;28;20525;-67
2021/03/13 01:06:09;;;;;;;86.32;64.70;;;8.20;99.90;;;;;;5036109;28;20410;-73
2021/03/13 01:08:35;;;;;;;83.95;61.60;;;8.30;99.90;;;;;;5039889;28;20049;-68
2021/03/13 01:11:01;;;;;;;104.70;75.32;;;8.30;99.90;;;;;;5040939;28;20025;-66
2021/03/13 01:13:28;;;;;;;90.20;68.63;;;8.30;99.90;;;;;;5040189;28;20022;-74
2021/03/13 01:15:54;;;;;;;80.28;62.40;;;8.30;99.90;;;;;;5039462;28;20025;-66
2021/03/13 01:18:20;;;;;;;105.65;77.65;;;8.30;99.90;;;;;;5037339;28;20024;-67
2021/03/13 01:20:50;;;;;;;114.93;89.03;;;8.20;99.90;;;;;;5035972;28;20028;-73
2021/03/13 01:23:16;;;;;;;175.65;121.25;;;8.30;99.90;;;;;;5037940;28;20006;-68
2021/03/13 01:25:42;;;;;;;123.35;85.68;;;8.30;99.90;;;;;;5039673;28;20476;-73
2021/03/13 01:28:08;;;;;;;145.02;103.85;;;8.30;99.90;;;;;;5037334;28;20026;-74
2021/03/13 01:30:36;;;;;;;133.75;94.70;;;8.20;99.90;;;;;;5038600;28;20026;-73
2021/03/13 01:33:02;;;;;;;109.82;78.70;;;8.20;99.90;;;;;;5037927;28;20486;-66
2021/03/13 01:35:28;;;;;;;122.43;88.80;;;8.10;99.90;;;;;;5038472;28;20021;-73
2021/03/13 01:37:54;;;;;;;115.75;85.35;;;8.20;99.90;;;;;;5038506;28;20025;-66
2021/03/13 01:40:20;;;;;;;116.68;84.32;;;8.20;99.90;;;;;;5037079;28;20429;-68
2021/03/13 01:42:48;;;;;;;106.30;80.68;;;8.20;99.90;;;;;;5038936;28;20024;-71
2021/03/13 01:45:17;;;;;;;135.15;94.13;;;8.20;99.90;;;;;;5039478;28;20077;-73
2021/03/13 01:47:45;;;;;;;124.90;89.18;;;8.10;99.90;;;;;;5039094;28;20104;-67
2021/03/13 01:50:13;;;;;;;142.15;98.72;;;8.10;99.90;;;;;;5037610;28;20072;-66
2021/03/13 01:52:40;;;;;;;123.95;90.80;;;8.10;99.90;;;;;;5037608;28;20026;-73
2021/03/13 01:55:11;;;;;;;126.32;90.15;;;8.10;99.90;;;;;;5037813;28;20087;-67
2021/03/13 01:57:37;;;;;;;90.40;67.13;;;8.10;99.90;;;;;;5038699;28;20108;-67
2021/03/13 02:00:15;;;;;;;74.63;56.45;;;8.20;99.90;;;;;;5037727;28;20394;-67
2021/03/13 02:02:42;;;;;;;84.72;64.25;;;8.20;99.90;;;;;;5037553;28;20021;-67
2021/03/13 02:05:14;;;;;;;79.35;59.13;;;8.20;99.90;;;;;;5037104;28;20018;-74
2021/03/13 02:07:51;;;;;;;92.60;66.97;;;8.20;99.90;;;;;;5035770;28;20017;-74
2021/03/13 02:10:29;;;;;;;93.50;68.85;;;8.20;99.90;;;;;;5039029;28;20022;-74
2021/03/13 02:13:13;;;;;;;79.03;56.85;;;8.20;99.90;;;;;;5038097;28;20030;-74
2021/03/13 02:15:51;;;;;;;65.15;46.17;;;8.20;99.90;;;;;;5036299;28;20061;-67
2021/03/13 02:18:20;;;;;;;58.63;43.60;;;8.10;99.90;;;;;;5038167;28;20025;-72
2021/03/13 02:21:07;;;;;;;56.75;42.53;;;8.10;99.90;;;;;;5037031;28;20021;-73
2021/03/13 02:24:10;;;;;;;61.95;44.92;;;8.20;99.90;;;;;;5038363;28;20029;-68
2021/03/13 02:26:43;;;;;;;49.35;36.55;;;8.20;99.90;;;;;;5035945;28;20472;-73
2021/03/13 02:29:15;;;;;;;41.95;32.72;;;8.10;99.90;;;;;;5037718;28;20415;-71
2021/03/13 02:31:49;;;;;;;41.88;31.48;;;8.10;99.90;;;;;;5039345;28;20024;-69
2021/03/13 02:34:24;;;;;;;41.60;31.58;;;8.10;99.90;;;;;;5037312;28;20411;-73
2021/03/13 02:36:51;;;;;;;38.20;29.95;;;8.10;99.90;;;;;;5037375;28;20026;-66
2021/03/13 02:39:21;;;;;;;38.97;29.60;;;8.10;99.90;;;;;;5037570;28;20025;-68
2021/03/13 02:41:52;;;;;;;33.70;26.58;;;8.10;99.90;;;;;;5037947;28;20365;-72
2021/03/13 02:44:20;;;;;;;34.78;26.98;;;8.10;99.90;;;;;;5037467;28;20036;-67
2021/03/13 02:46:48;;;;;;;35.83;26.83;;;8.10;99.90;;;;;;5038671;28;20061;-67
2021/03/13 02:49:15;;;;;;;33.80;25.92;;;8.10;99.90;;;;;;5039027;28;20029;-68
2021/03/13 02:51:43;;;;;;;32.85;26.20;;;8.10;99.90;;;;;;5036450;28;20056;-75
2021/03/13 02:54:10;;;;;;;38.15;28.35;;;8.10;99.90;;;;;;5037268;28;20487;-70
2021/03/13 02:56:38;;;;;;;34.88;26.80;;;8.10;99.90;;;;;;5038557;28;20025;-69
2021/03/13 02:59:05;;;;;;;38.88;28.40;;;8.10;99.90;;;;;;5038795;28;20026;-68
2021/03/13 03:01:33;;;;;;;37.13;28.55;;;8.00;99.90;;;;;;5037109;28;20144;-67
2021/03/13 03:04:01;;;;;;;34.75;26.63;;;8.00;99.90;;;;;;5039114;28;20021;-67
2021/03/13 03:06:31;;;;;;;34.25;27.05;;;8.00;99.90;;;;;;5038878;28;20013;-67
2021/03/13 03:08:58;;;;;;;34.50;26.83;;;8.10;99.90;;;;;;5040520;28;20562;-73
2021/03/13 03:11:25;;;;;;;34.45;27.95;;;8.00;99.90;;;;;;5042754;28;20030;-68
2021/03/13 03:13:52;;;;;;;32.95;26.45;;;8.00;99.90;;;;;;5040705;28;20036;-68
2021/03/13 03:16:20;;;;;;;31.75;24.38;;;7.90;99.90;;;;;;5039189;28;20104;-74
2021/03/13 03:18:48;;;;;;;29.75;22.83;;;7.90;99.90;;;;;;5041437;28;20025;-73
2021/03/13 03:21:18;;;;;;;24.63;19.40;;;8.00;99.90;;;;;;5041526;28;20096;-67
2021/03/13 03:23:45;;;;;;;25.73;20.48;;;8.00;99.90;;;;;;5041687;28;20048;-68
2021/03/13 03:26:12;;;;;;;27.30;21.80;;;8.00;99.90;;;;;;5043497;28;20077;-74
2021/03/13 03:28:38;;;;;;;27.33;21.55;;;8.00;99.90;;;;;;5040509;28;20079;-75
2021/03/13 03:31:04;;;;;;;28.27;21.38;;;8.00;99.90;;;;;;5041756;28;20031;-69
2021/03/13 03:33:30;;;;;;;24.98;20.50;;;7.90;99.90;;;;;;5042851;28;20057;-70
2021/03/13 03:35:56;;;;;;;24.75;19.98;;;7.90;99.90;;;;;;5040722;28;20028;-74
2021/03/13 03:38:22;;;;;;;23.40;17.92;;;7.90;99.90;;;;;;5039189;28;20028;-73
2021/03/13 03:40:48;;;;;;;22.42;17.98;;;7.90;99.90;;;;;;5041830;28;20025;-75
2021/03/13 03:43:26;;;;;;;21.13;17.38;;;7.90;99.90;;;;;;5040548;28;20093;-74
2021/03/13 03:45:56;;;;;;;21.30;18.02;;;7.90;99.90;;;;;;5039243;28;20103;-66
2021/03/13 03:48:23;;;;;;;18.92;16.08;;;8.00;99.90;;;;;;5040730;28;20100;-74
2021/03/13 03:50:50;;;;;;;18.85;16.17;;;8.00;99.90;;;;;;5035879;28;20105;-66
2021/03/13 03:53:23;;;;;;;18.80;16.58;;;7.90;99.90;;;;;;5040918;28;20034;-68
2021/03/13 03:55:52;;;;;;;19.70;17.23;;;7.80;99.90;;;;;;5041450;28;20030;-68
2021/03/13 03:58:27;;;;;;;17.40;15.05;;;7.80;99.90;;;;;;5040692;28;20022;-73
2021/03/13 04:00:55;;;;;;;18.48;15.32;;;7.80;99.90;;;;;;5039374;28;20024;-67
2021/03/13 04:03:23;;;;;;;18.38;15.75;;;7.80;99.90;;;;;;5037960;28;20053;-67
2021/03/13 04:05:49;;;;;;;22.10;18.67;;;7.80;99.90;;;;;;5039930;28;20024;-75
2021/03/13 04:08:18;;;;;;;26.55;22.40;;;7.90;99.90;;;;;;5041354;28;20099;-74
2021/03/13 04:10:50;;;;;;;35.20;25.20;;;7.90;99.90;;;;;;5040175;28;20096;-67
2021/03/13 04:13:18;;;;;;;42.25;32.55;;;7.80;99.90;;;;;;5040782;28;20022;-75
2021/03/13 04:15:46;;;;;;;32.47;26.90;;;7.80;99.90;;;;;;5039971;28;20494;-68
2021/03/13 04:18:13;;;;;;;22.38;19.27;;;7.80;99.90;;;;;;5041331;28;20036;-71
2021/03/13 04:20:40;;;;;;;40.83;29.02;;;7.80;99.90;;;;;;5038114;28;20017;-69
2021/03/13 04:23:08;;;;;;;21.50;17.95;;;7.70;99.90;;;;;;5039723;28;20022;-74
2021/03/13 04:25:36;;;;;;;23.40;18.45;;;7.80;99.90;;;;;;5042602;28;20025;-68
2021/03/13 04:28:03;;;;;;;25.70;20.23;;;7.80;99.90;;;;;;5041120;28;20487;-75
2021/03/13 04:30:30;;;;;;;38.45;29.63;;;7.70;99.90;;;;;;5042022;28;20048;-68
2021/03/13 04:32:58;;;;;;;37.75;31.05;;;7.80;99.90;;;;;;5042249;28;20021;-75
2021/03/13 04:35:26;;;;;;;29.60;25.17;;;7.80;99.90;;;;;;5042068;28;20083;-71
2021/03/13 04:37:55;;;;;;;28.38;22.27;;;7.80;99.90;;;;;;5037971;28;20033;-68
2021/03/13 04:40:22;;;;;;;34.60;26.40;;;7.70;99.90;;;;;;5034644;28;20026;-75
2021/03/13 04:42:50;;;;;;;32.58;25.70;;;7.70;99.90;;;;;;5039659;28;20033;-75
2021/03/13 04:45:16;;;;;;;32.38;23.45;;;7.70;99.90;;;;;;5039074;28;20022;-73
2021/03/13 04:47:51;;;;;;;27.15;20.95;;;7.80;99.90;;;;;;5039129;28;20391;-75
2021/03/13 04:50:21;;;;;;;33.45;24.05;;;7.70;99.90;;;;;;5039151;28;20453;-69
2021/03/13 04:52:49;;;;;;;36.03;24.55;;;7.60;99.90;;;;;;5039904;28;20049;-68
2021/03/13 04:55:15;;;;;;;37.65;25.20;;;7.80;99.90;;;;;;5038382;28;20075;-69
2021/03/13 04:57:41;;;;;;;34.28;24.48;;;7.70;99.90;;;;;;5037697;28;20025;-70
2021/03/13 05:00:13;;;;;;;34.55;24.60;;;7.70;99.90;;;;;;5037726;28;20022;-71
2021/03/13 05:02:39;;;;;;;33.10;23.80;;;7.70;99.90;;;;;;5039285;28;20048;-74
2021/03/13 05:05:07;;;;;;;31.67;24.35;;;7.80;99.90;;;;;;5038925;28;20040;-68
2021/03/13 05:07:33;;;;;;;23.55;20.05;;;7.80;99.90;;;;;;5039702;28;20047;-71
2021/03/13 05:09:59;;;;;;;29.15;24.80;;;7.70;99.90;;;;;;5038144;28;20028;-73
2021/03/13 05:12:25;;;;;;;27.35;22.90;;;7.70;99.90;;;;;;5039031;28;20387;-68
2021/03/13 05:14:51;;;;;;;22.00;18.63;;;7.70;99.90;;;;;;5039577;28;20383;-71
2021/03/13 05:17:17;;;;;;;23.70;19.65;;;7.60;99.90;;;;;;5038729;28;20467;-71
2021/03/13 05:19:43;;;;;;;25.67;21.00;;;7.60;99.90;;;;;;5033121;28;20555;-68
2021/03/13 05:22:09;;;;;;;27.75;21.70;;;7.60;99.90;;;;;;5039306;28;20476;-68
2021/03/13 05:24:35;;;;;;;25.27;21.02;;;7.70;99.90;;;;;;5038992;28;20049;-68
2021/03/13 05:27:02;;;;;;;23.45;18.95;;;7.60;99.90;;;;;;5037394;28;20009;-75
2021/03/13 05:29:28;;;;;;;22.60;17.65;;;7.50;99.90;;;;;;5038276;28;20021;-72
2021/03/13 05:31:54;;;;;;;36.47;24.27;;;7.60;99.90;;;;;;5036719;28;20551;-67
2021/03/13 05:34:20;;;;;;;36.05;27.70;;;7.60;99.90;;;;;;5037546;28;20068;-74
2021/03/13 05:36:46;;;;;;;34.30;27.05;;;7.60;99.90;;;;;;5037722;28;20107;-74
2021/03/13 05:39:12;;;;;;;31.13;24.75;;;7.70;99.90;;;;;;5039105;28;20375;-75
2021/03/13 05:41:39;;;;;;;32.65;24.60;;;7.60;99.90;;;;;;5039404;28;20033;-69
2021/03/13 05:44:06;;;;;;;25.42;20.30;;;7.70;99.90;;;;;;5038156;28;19998;-71
2021/03/13 05:46:37;;;;;;;37.30;27.63;;;7.70;99.90;;;;;;5039781;28;20113;-72
2021/03/13 05:49:07;;;;;;;31.88;23.80;;;7.70;99.90;;;;;;5038939;28;20038;-75
2021/03/13 05:51:52;;;;;;;26.33;20.95;;;7.60;99.90;;;;;;5038657;28;20045;-73
2021/03/13 05:54:18;;;;;;;25.48;21.27;;;7.60;99.90;;;;;;5038660;28;20009;-74
2021/03/13 05:56:45;;;;;;;26.98;22.38;;;7.70;99.90;;;;;;5039409;28;20026;-68
2021/03/13 05:59:12;;;;;;;32.00;25.17;;;7.70;99.90;;;;;;5039283;28;20045;-69
2021/03/13 06:01:38;;;;;;;48.72;34.50;;;7.80;99.90;;;;;;5036831;28;20400;-68
2021/03/13 06:04:04;;;;;;;40.92;28.65;;;7.80;99.90;;;;;;5035297;28;20021;-68
2021/03/13 06:06:36;;;;;;;52.00;36.75;;;7.80;99.90;;;;;;5039010;28;20042;-67
2021/03/13 06:09:02;;;;;;;43.22;32.33;;;7.80;99.90;;;;;;5037385;28;20069;-68
2021/03/13 06:11:28;;;;;;;57.10;39.25;;;7.80;99.90;;;;;;5037510;28;20021;-74
2021/03/13 06:13:54;;;;;;;76.28;60.78;;;7.80;99.90;;;;;;5039090;28;20026;-68
2021/03/13 06:16:22;;;;;;;82.75;65.13;;;7.80;99.90;;;;;;5039001;28;20091;-74
2021/03/13 06:18:48;;;;;;;52.33;41.22;;;7.80;99.90;;;;;;5039163;28;20002;-67
2021/03/13 06:21:34;;;;;;;41.88;28.20;;;7.70;99.90;;;;;;5036950;28;20467;-67
2021/03/13 06:24:24;;;;;;;50.13;30.38;;;7.60;99.90;;;;;;5036298;28;20101;-71
2021/03/13 06:27:01;;;;;;;60.30;38.90;;;7.70;99.90;;;;;;5037031;28;20119;-74
2021/03/13 06:29:29;;;;;;;50.60;37.15;;;7.70;99.90;;;;;;5037180;28;20105;-68
2021/03/13 06:32:11;;;;;;;42.92;31.52;;;7.60;99.90;;;;;;5037026;28;20053;-69
2021/03/13 06:34:37;;;;;;;48.78;36.05;;;7.40;99.90;;;;;;5037308;28;20456;-68
2021/03/13 06:37:25;;;;;;;59.67;43.53;;;7.40;99.90;;;;;;5036908;28;20424;-67
2021/03/13 06:39:56;;;;;;;42.40;32.45;;;7.50;99.90;;;;;;5037764;28;20022;-69
2021/03/13 06:42:31;;;;;;;60.65;45.88;;;7.50;99.90;;;;;;5038706;28;20036;-68
2021/03/13 06:45:03;;;;;;;56.17;41.15;;;7.60;99.90;;;;;;5041352;28;20053;-76
2021/03/13 06:47:32;;;;;;;48.60;36.00;;;7.80;99.90;;;;;;5041700;28;20395;-74
2021/03/13 06:50:13;;;;;;;63.08;51.95;;;7.80;99.90;;;;;;5039760;28;20046;-67
2021/03/13 06:52:39;;;;;;;422.73;172.70;;;7.90;99.90;;;;;;5040533;28;20021;-69
2021/03/13 06:55:06;;;;;;;216.25;77.15;;;7.90;99.90;;;;;;5041157;28;20033;-77
2021/03/13 06:57:32;;;;;;;100.63;43.50;;;7.80;99.90;;;;;;5039028;28;20026;-68
2021/03/13 07:00:02;;;;;;;72.93;33.15;;;7.90;99.90;;;;;;5040133;28;20065;-66
2021/03/13 07:02:28;;;;;;;39.95;29.55;;;7.90;99.90;;;;;;5039210;28;20022;-66
2021/03/13 07:05:08;;;;;;;125.68;77.90;;;7.90;99.90;;;;;;5038599;28;20032;-68
2021/03/13 07:07:34;;;;;;;34.58;27.33;;;8.10;99.90;;;;;;5039327;28;20032;-67
2021/03/13 07:10:05;;;;;;;52.42;37.38;;;8.00;99.90;;;;;;5039655;28;20089;-65
2021/03/13 07:12:36;;;;;;;56.25;36.90;;;8.00;99.90;;;;;;5039199;28;20021;-75
2021/03/13 07:15:22;;;;;;;145.32;80.22;;;8.00;99.90;;;;;;5041275;28;20108;-76
2021/03/13 07:17:53;;;;;;;53.67;33.05;;;8.10;99.90;;;;;;5037595;28;20025;-70
2021/03/13 07:20:33;;;;;;;52.67;33.42;;;8.30;99.90;;;;;;5039115;28;20017;-69
2021/03/13 07:23:04;;;;;;;56.13;33.42;;;8.30;99.90;;;;;;5038450;28;20030;-75
2021/03/13 07:25:31;;;;;;;62.95;40.72;;;8.40;99.90;;;;;;5036152;28;20025;-68
2021/03/13 07:28:02;;;;;;;366.70;209.02;;;8.60;99.90;;;;;;5038294;28;20505;-70
2021/03/13 07:30:30;;;;;;;31.38;24.30;;;8.40;99.90;;;;;;5040006;28;20029;-68
2021/03/13 07:33:08;;;;;;;40.65;32.58;;;8.70;99.90;;;;;;5040784;28;20014;-71
2021/03/13 07:35:37;;;;;;;318.95;167.32;;;9.10;99.90;;;;;;5040053;28;20039;-66
2021/03/13 07:38:05;;;;;;;27.45;20.25;;;9.40;99.90;;;;;;5041251;28;20025;-68
2021/03/13 07:40:34;;;;;;;21.40;17.08;;;9.50;99.90;;;;;;5039673;28;20056;-74
2021/03/13 07:43:02;;;;;;;34.80;27.75;;;9.50;99.90;;;;;;5039651;28;20033;-73
2021/03/13 07:45:28;;;;;;;30.17;27.08;;;9.70;99.90;;;;;;5040268;28;20368;-66
2021/03/13 07:47:58;;;;;;;52.58;46.25;;;9.70;99.90;;;;;;5040607;28;20379;-66
2021/03/13 07:50:24;;;;;;;34.05;24.73;;;9.60;99.90;;;;;;5040135;28;20053;-66
2021/03/13 07:52:50;;;;;;;42.97;27.48;;;9.40;99.90;;;;;;5039474;28;20014;-66
2021/03/13 07:55:18;;;;;;;40.95;25.73;;;9.30;99.90;;;;;;5037545;28;20030;-75
2021/03/13 07:57:50;;;;;;;31.88;24.08;;;9.20;99.90;;;;;;5040926;28;20029;-71
2021/03/13 08:00:17;;;;;;;29.20;21.17;;;9.20;99.90;;;;;;5039072;28;20036;-66
2021/03/13 08:02:46;;;;;;;46.15;27.17;;;9.60;99.90;;;;;;5037368;28;20108;-70
2021/03/13 08:05:18;;;;;;;47.35;31.75;;;9.50;99.90;;;;;;5037767;28;20475;-64
2021/03/13 08:07:55;;;;;;;22.42;20.05;;;9.60;99.90;;;;;;5033290;28;20030;-68
2021/03/13 08:10:47;;;;;;;17.10;15.02;;;9.60;99.90;;;;;;5026525;28;20053;-68
2021/03/13 08:13:28;;;;;;;28.30;24.70;;;9.70;99.90;;;;;;5024960;28;20025;-66
2021/03/13 08:16:11;;;;;;;26.08;21.73;;;9.70;99.90;;;;;;5033788;28;20033;-66
2021/03/13 08:18:54;;;;;;;48.22;33.88;;;9.80;99.90;;;;;;5034026;28;20032;-65
2021/03/13 08:21:23;;;;;;;42.42;28.67;;;9.90;99.90;;;;;;5037194;28;20032;-66
2021/03/13 08:23:58;;;;;;;22.35;18.17;;;10.10;99.90;;;;;;5041476;28;20021;-65
2021/03/13 08:26:40;;;;;;;21.75;16.42;;;10.30;99.90;;;;;;5040624;28;20029;-65
2021/03/13 08:29:09;;;;;;;44.15;27.55;;;10.70;99.80;;;;;;5038659;28;20025;-67
2021/03/13 08:31:37;;;;;;;45.80;28.38;;;11.00;99.10;;;;;;5036351;28;20022;-68
2021/03/13 08:34:06;;;;;;;22.38;18.13;;;11.20;99.40;;;;;;5040701;28;20025;-76
2021/03/13 08:36:45;;;;;;;88.05;50.97;;;11.60;99.40;;;;;;5039094;28;20029;-74
2021/03/13 08:39:22;;;;;;;26.48;22.73;;;12.10;99.90;;;;;;5038547;28;20072;-74
2021/03/13 08:41:50;;;;;;;32.40;21.58;;;12.00;97.20;;;;;;5038903;28;20029;-64
2021/03/13 08:44:16;;;;;;;31.63;21.55;;;11.80;97.20;;;;;;5038218;28;20060;-67
2021/03/13 08:46:45;;;;;;;30.60;22.70;;;11.50;97.30;;;;;;5038058;28;20021;-68
2021/03/13 08:49:31;;;;;;;30.98;21.20;;;11.40;98.40;;;;;;5027012;28;20025;-67
2021/03/13 08:52:03;;;;;;;58.53;33.97;;;11.30;97.90;;;;;;5020824;28;20053;-68
2021/03/13 08:54:38;;;;;;;26.05;19.33;;;11.30;97.70;;;;;;5024577;28;20022;-72
2021/03/13 08:57:05;;;;;;;18.42;14.85;;;11.90;97.80;;;;;;5025369;28;20028;-67
2021/03/13 08:59:32;;;;;;;34.45;22.58;;;;;;;;;;5031746;28;20390;-67
2021/03/13 09:02:13;;;;;;;29.10;18.00;;;12.70;93.50;;;;;;5037477;28;20026;-67
2021/03/13 09:04:51;;;;;;;31.75;19.77;;;12.20;94.60;;;;;;5037578;28;20017;-74
2021/03/13 09:07:21;;;;;;;36.28;23.10;;;11.90;95.30;;;;;;5034442;28;20106;-68
2021/03/13 09:09:48;;;;;;;53.42;27.98;;;11.80;96.10;;;;;;5036414;28;20509;-75
2021/03/13 09:12:19;;;;;;;59.22;31.85;;;12.10;97.00;;;;;;5040246;28;20024;-69
2021/03/13 09:14:54;;;;;;;31.80;19.73;;;12.50;95.30;;;;;;5038893;28;20052;-71
2021/03/13 09:17:21;;;;;;;37.25;23.00;;;12.70;94.90;;;;;;5039197;28;20033;-73
2021/03/13 09:19:48;;;;;;;55.05;30.42;;;12.80;95.60;;;;;;5034427;28;20029;-65
2021/03/13 09:22:18;;;;;;;20.27;14.80;;;13.20;93.80;;;;;;5038655;28;20486;-64
2021/03/13 09:24:51;;;;;;;13.05;10.38;;;13.50;93.10;;;;;;5038801;28;20510;-66
2021/03/13 09:27:21;;;;;;;16.33;13.25;;;13.80;92.30;;;;;;5038182;28;20030;-74
2021/03/13 09:29:47;;;;;;;21.30;15.40;;;14.30;90.10;;;;;;5039487;28;20566;-74
2021/03/13 09:32:14;;;;;;;14.02;10.93;;;14.00;92.10;;;;;;5037843;28;20522;-73
2021/03/13 09:34:41;;;;;;;8.95;7.35;;;14.50;88.90;;;;;;5038474;28;20022;-73
2021/03/13 09:37:19;;;;;;;7.32;6.57;;;13.70;86.00;;;;;;5036674;28;20032;-74
2021/03/13 09:39:50;;;;;;;10.73;8.57;;;14.00;89.40;;;;;;5037674;28;20040;-66
2021/03/13 09:42:18;;;;;;;12.10;9.63;;;14.30;84.50;;;;;;5037073;28;20033;-72
2021/03/13 09:44:44;;;;;;;10.63;9.63;;;14.50;81.70;;;;;;5038616;28;20029;-66
2021/03/13 09:47:13;;;;;;;15.48;12.55;;;14.20;87.90;;;;;;5035720;28;20028;-66
2021/03/13 09:49:39;;;;;;;11.02;9.90;;;14.20;91.30;;;;;;5036404;28;20546;-65
2021/03/13 09:52:05;;;;;;;10.50;9.40;;;14.70;92.10;;;;;;5035766;28;20037;-74
2021/03/13 09:54:31;;;;;;;10.10;9.10;;;14.90;90.50;;;;;;5036830;28;20080;-63
2021/03/13 09:56:58;;;;;;;8.43;7.63;;;14.70;89.50;;;;;;5037289;28;20403;-64
2021/03/13 09:59:24;;;;;;;8.27;7.13;;;14.30;88.70;;;;;;5036348;28;20079;-67
2021/03/13 10:01:50;;;;;;;9.40;8.40;;;14.30;90.00;;;;;;5036678;28;20018;-69
2021/03/13 10:04:16;;;;;;;8.10;7.30;;;14.10;91.30;;;;;;5036518;28;20096;-68
2021/03/13 10:06:42;;;;;;;10.45;9.35;;;14.00;90.10;;;;;;5037212;28;20022;-66
2021/03/13 10:09:11;;;;;;;21.17;13.82;;;14.00;89.40;;;;;;5037156;28;20104;-65
2021/03/13 10:11:42;;;;;;;37.63;20.75;;;14.50;85.00;;;;;;5037204;28;20540;-75
2021/03/13 10:14:22;;;;;;;21.15;13.15;;;14.30;87.20;;;;;;5039078;28;20029;-72
2021/03/13 10:17:01;;;;;;;18.92;12.57;;;14.70;86.60;;;;;;5038837;28;20029;-71
2021/03/13 10:19:38;;;;;;;9.45;8.32;;;14.80;88.30;;;;;;5019077;28;20111;-68
2021/03/13 10:22:09;;;;;;;32.30;24.77;;;15.30;88.20;;;;;;5020266;28;20064;-66
2021/03/13 10:24:45;;;;;;;21.63;18.30;;;15.40;86.10;;;;;;5019138;28;20026;-65
2021/03/13 10:27:22;;;;;;;7.90;5.90;;;15.50;85.60;;;;;;5020663;28;20101;-72
2021/03/13 10:29:56;;;;;;;8.88;7.00;;;15.90;80.80;;;;;;5021435;28;20025;-73
2021/03/13 10:32:28;;;;;;;7.22;6.18;;;16.30;83.10;;;;;;5027539;28;20005;-71
2021/03/13 10:35:14;;;;;;;10.68;7.95;;;16.50;79.10;;;;;;5039032;28;20044;-66
2021/03/13 10:50:39;;;;;;;20.90;13.13;;;16.80;69.40;;;;;;4892247;23;20050;-72
2021/03/13 10:53:33;;;;;;;112.50;49.40;;;16.60;80.50;;;;;;4993972;28;20153;-73
2021/03/13 10:56:10;;;;;;;390.50;158.57;;;17.00;75.40;;;;;;4994067;28;20037;-73
2021/03/13 10:58:54;;;;;;;99.65;43.40;;;16.80;75.20;;;;;;4994207;28;20022;-72
2021/03/13 11:01:21;;;;;;;30.38;16.30;;;16.80;72.90;;;;;;4993653;28;20447;-63
2021/03/13 11:03:49;;;;;;;6.18;5.57;;;17.60;77.80;;;;;;4993971;28;20058;-69
2021/03/13 11:06:27;;;;;;;8.18;6.40;;;17.70;72.20;;;;;;4993826;28;20034;-62
2021/03/13 11:08:57;;;;;;;208.98;80.22;;;17.00;65.30;;;;;;4994325;28;20041;-71
2021/03/13 11:11:24;;;;;;;9.52;6.47;;;16.90;74.00;;;;;;4993955;28;20034;-64
2021/03/13 11:13:50;;;;;;;7.07;5.30;;;18.00;75.10;;;;;;4994750;28;20019;-68
2021/03/13 11:16:16;;;;;;;14.77;9.10;;;19.10;67.30;;;;;;4994163;28;20033;-69
2021/03/13 11:18:42;;;;;;;14.40;9.65;;;18.50;65.50;;;;;;4994303;28;20464;-69
2021/03/13 11:21:09;;;;;;;11.65;8.05;;;18.80;67.30;;;;;;4994138;28;20018;-73
2021/03/13 11:23:34;;;;;;;13.80;8.57;;;19.20;68.20;;;;;;4992556;28;20019;-63
2021/03/13 11:26:00;;;;;;;49.95;24.65;;;19.20;67.70;;;;;;4992609;28;20041;-73
2021/03/13 11:28:27;;;;;;;79.47;34.38;;;19.20;65.50;;;;;;4993751;28;20023;-71
2021/03/13 11:30:53;;;;;;;9.05;6.80;;;19.20;65.00;;;;;;4996285;28;20376;-73
2021/03/13 11:33:19;;;;;;;17.88;11.60;;;19.60;64.40;;;;;;4997332;28;20044;-73
2021/03/13 11:35:45;;;;;;;7.78;6.57;;;20.00;64.90;;;;;;4997362;28;20375;-73
2021/03/13 11:38:11;;;;;;;5.80;4.45;;;20.00;64.40;;;;;;4997382;28;20019;-73
2021/03/13 11:40:37;;;;;;;11.55;8.10;;;20.30;58.00;;;;;;4997365;28;20488;-72
2021/03/13 11:43:03;;;;;;;56.22;39.25;;;18.80;55.80;;;;;;4997196;28;20054;-68
2021/03/13 11:45:30;;;;;;;6.90;5.03;;;18.40;60.40;;;;;;4997528;28;20484;-73
2021/03/13 11:47:57;;;;;;;104.72;48.40;;;18.60;64.20;;;;;;4997260;28;20022;-73
2021/03/13 11:50:28;;;;;;;15.85;10.25;;;19.20;58.30;;;;;;4996881;28;20466;-73
2021/03/13 11:52:56;;;;;;;12.65;9.20;;;18.90;65.70;;;;;;4997523;28;20463;-73
2021/03/13 11:55:24;;;;;;;8.15;6.63;;;19.50;62.40;;;;;;4997945;28;20042;-73
2021/03/13 11:57:50;;;;;;;7.60;6.18;;;20.30;64.40;;;;;;4996996;28;20068;-73
2021/03/13 12:00:17;;;;;;;18.25;11.50;;;20.50;61.30;;;;;;4997191;28;20076;-73
2021/03/13 12:02:44;;;;;;;14.55;9.00;;;19.90;60.90;;;;;;4997022;28;20027;-73
2021/03/13 12:05:10;;;;;;;33.55;21.52;;;20.00;65.30;;;;;;4996866;28;20423;-73
2021/03/13 12:07:38;;;;;;;26.70;14.73;;;20.20;58.60;;;;;;4997616;28;20052;-72
2021/03/13 12:10:05;;;;;;;16.63;11.15;;;19.80;58.70;;;;;;4996818;28;20040;-64
2021/03/13 12:12:31;;;;;;;34.65;19.38;;;19.80;65.60;;;;;;4997110;28;20480;-72
2021/03/13 12:14:57;;;;;;;12.38;8.43;;;19.70;60.20;;;;;;4996555;28;20058;-72
2021/03/13 12:17:24;;;;;;;12.70;9.68;;;20.50;64.00;;;;;;4997139;28;20022;-73
2021/03/13 12:19:50;;;;;;;7.53;6.63;;;20.60;57.50;;;;;;4996474;28;20014;-73
2021/03/13 12:22:16;;;;;;;9.90;7.70;;;20.30;57.50;;;;;;4996708;28;20026;-73
2021/03/13 12:24:43;;;;;;;29.23;15.38;;;20.90;61.30;;;;;;4996559;28;20023;-73
2021/03/13 12:27:10;;;;;;;16.13;9.00;;;21.00;56.40;;;;;;4996446;28;20503;-74
2021/03/13 12:29:36;;;;;;;5.90;4.97;;;21.80;59.20;;;;;;4997034;28;20470;-72
2021/03/13 12:32:02;;;;;;;162.50;46.65;;;20.80;52.60;;;;;;4996526;28;20368;-64
2021/03/13 12:34:28;;;;;;;6.03;4.60;;;20.30;55.60;;;;;;4996454;28;20023;-74
2021/03/13 12:36:54;;;;;;;7.43;4.63;;;19.30;55.20;;;;;;4995951;28;20037;-62
2021/03/13 12:39:20;;;;;;;7.93;5.75;;;18.80;57.00;;;;;;4996781;28;20488;-70
2021/03/13 12:41:46;;;;;;;7.20;4.43;;;19.10;58.40;;;;;;4996627;28;20460;-63
2021/03/13 12:44:13;;;;;;;6.22;4.75;;;18.70;60.00;;;;;;4997868;28;20080;-66
2021/03/13 12:46:39;;;;;;;14.02;8.93;;;17.90;60.90;;;;;;5000578;28;20480;-62
2021/03/13 12:49:05;;;;;;;8.15;5.40;;;17.90;65.80;;;;;;4997162;28;20090;-69
2021/03/13 12:51:31;;;;;;;33.67;14.98;;;18.20;63.40;;;;;;4997490;28;20026;-64
2021/03/13 12:53:59;;;;;;;66.43;31.42;;;18.30;62.40;;;;;;4997464;28;20026;-64
2021/03/13 12:56:25;;;;;;;11.85;7.75;;;18.20;66.40;;;;;;4996666;28;20006;-65
2021/03/13 12:58:52;;;;;;;36.20;17.35;;;18.30;62.90;;;;;;4997277;28;20030;-74